sensor_id;sensor_type;location;lat;lon;timestamp;temperature;humidity
12460;DHT22;6295;49.452;8.466;2022-11-03T06:14:57;7.00;99.90
12460;DHT22;6295;49.452;8.466;2022-11-03T06:19:00;6.90;99.90
12460;DHT22;6295;49.452;8.466;2022-11-03T06:23:08;6.90;99.90
12460;DHT22;6295;49.452;8.466;2022-11-03T06:27:13;6.90;99.90
12460;DHT22;6295;49.452;8.466;2022-11-03T06:31:20;6.90;99.90
12460;DHT22;6295;49.452;8.466;2022-11-03T06:39:27;6.90;99.90
12460;DHT22;6295;49.452;8.466;2022-11-03T06:43:35;7.00;99.90
12460;DHT22;6295;49.452;8.466;2022-11-03T06:47:42;7.00;99.90
12460;DHT22;6295;49.452;8.466;2022-11-03T06:51:45;7.00;99.90
12460;DHT22;6295;49.452;8.466;2022-11-03T06:55:48;7.00;99.90
12460;DHT22;6295;49.452;8.466;2022-11-03T06:59:54;7.10;99.90
12460;DHT22;6295;49.452;8.466;2022-11-03T07:04:02;7.10;99.90
12460;DHT22;6295;49.452;8.466;2022-11-03T07:08:20;7.10;99.90
12460;DHT22;6295;49.452;8.466;2022-11-03T07:12:22;7.20;99.90
12460;DHT22;6295;49.452;8.466;2022-11-03T07:16:27;7.30;99.90
12460;DHT22;6295;49.452;8.466;2022-11-03T07:20:32;7.30;99.90
12460;DHT22;6295;49.452;8.466;2022-11-03T07:24:37;7.40;99.90
12460;DHT22;6295;49.452;8.466;2022-11-03T07:28:40;7.50;99.90
12460;DHT22;6295;49.452;8.466;2022-11-03T07:32:43;7.60;99.90
12460;DHT22;6295;49.452;8.466;2022-11-03T07:36:46;7.60;99.90
12460;DHT22;6295;49.452;8.466;2022-11-03T07:40:52;7.70;99.90
12460;DHT22;6295;49.452;8.466;2022-11-03T07:44:55;7.80;99.90
12460;DHT22;6295;49.452;8.466;2022-11-03T07:48:58;7.90;99.90
12460;DHT22;6295;49.452;8.466;2022-11-03T07:53:09;8.00;99.90
12460;DHT22;6295;49.452;8.466;2022-11-03T07:57:17;8.10;99.90
12460;DHT22;6295;49.452;8.466;2022-11-03T08:01:28;8.10;99.90
12460;DHT22;6295;49.452;8.466;2022-11-03T08:05:31;8.30;99.90
12460;DHT22;6295;49.452;8.466;2022-11-03T08:09:35;8.40;99.90
12460;DHT22;6295;49.452;8.466;2022-11-03T08:13:38;8.40;99.90
12460;DHT22;6295;49.452;8.466;2022-11-03T08:17:41;8.50;99.90
12460;DHT22;6295;49.452;8.466;2022-11-03T08:21:44;8.70;99.90
12460;DHT22;6295;49.452;8.466;2022-11-03T08:25:49;8.80;99.90
12460;DHT22;6295;49.452;8.466;2022-11-03T08:29:51;8.90;99.90
12460;DHT22;6295;49.452;8.466;2022-11-03T08:33:53;9.10;99.90
12460;DHT22;6295;49.452;8.466;2022-11-03T08:37:55;9.30;99.90
12460;DHT22;6295;49.452;8.466;2022-11-03T08:41:59;9.50;99.90
12460;DHT22;6295;49.452;8.466;2022-11-03T08:46:03;9.70;99.90
12460;DHT22;6295;49.452;8.466;2022-11-03T08:50:07;9.90;99.90
12460;DHT22;6295;49.452;8.466;2022-11-03T08:54:10;10.00;99.90
12460;DHT22;6295;49.452;8.466;2022-11-03T08:58:13;10.10;99.90
12460;DHT22;6295;49.452;8.466;2022-11-03T09:02:15;10.20;99.90
12460;DHT22;6295;49.452;8.466;2022-11-03T09:06:18;10.70;99.90
12460;DHT22;6295;49.452;8.466;2022-11-03T09:10:20;10.50;99.90
12460;DHT22;6295;49.452;8.466;2022-11-03T09:14:24;10.60;99.90
12460;DHT22;6295;49.452;8.466;2022-11-03T09:18:26;10.60;99.90
12460;DHT22;6295;49.452;8.466;2022-11-03T09:22:28;10.70;99.90
12460;DHT22;6295;49.452;8.466;2022-11-03T09:26:30;10.80;99.90
12460;DHT22;6295;49.452;8.466;2022-11-03T09:30:34;10.80;99.90
12460;DHT22;6295;49.452;8.466;2022-11-03T09:34:36;10.90;99.90
12460;DHT22;6295;49.452;8.466;2022-11-03T09:38:38;10.90;99.90
12460;DHT22;6295;49.452;8.466;2022-11-03T09:42:41;10.90;99.90
12460;DHT22;6295;49.452;8.466;2022-11-03T09:46:45;11.00;99.90
12460;DHT22;6295;49.452;8.466;2022-11-03T09:50:51;10.90;99.90
12460;DHT22;6295;49.452;8.466;2022-11-03T09:54:54;11.00;99.90
12460;DHT22;6295;49.452;8.466;2022-11-03T09:58:58;11.00;99.90
12460;DHT22;6295;49.452;8.466;2022-11-03T10:03:02;11.00;99.90
12460;DHT22;6295;49.452;8.466;2022-11-03T10:07:07;11.10;99.90
12460;DHT22;6295;49.452;8.466;2022-11-03T10:11:12;11.20;99.90
12460;DHT22;6295;49.452;8.466;2022-11-03T10:15:16;11.20;99.90
12460;DHT22;6295;49.452;8.466;2022-11-03T10:19:23;11.20;99.90
12460;DHT22;6295;49.452;8.466;2022-11-03T10:23:28;11.30;99.90
12460;DHT22;6295;49.452;8.466;2022-11-03T10:31:34;11.40;99.90
12460;DHT22;6295;49.452;8.466;2022-11-03T10:35:39;11.50;99.90
12460;DHT22;6295;49.452;8.466;2022-11-03T10:39:42;11.50;99.90
12460;DHT22;6295;49.452;8.466;2022-11-03T10:43:59;11.60;99.90
12460;DHT22;6295;49.452;8.466;2022-11-03T10:48:04;11.50;99.90
12460;DHT22;6295;49.452;8.466;2022-11-03T10:52:17;11.60;99.90
12460;DHT22;6295;49.452;8.466;2022-11-03T10:56:20;11.70;99.90
12460;DHT22;6295;49.452;8.466;2022-11-03T11:00:22;11.70;99.90
12460;DHT22;6295;49.452;8.466;2022-11-03T11:04:25;11.70;99.90
12460;DHT22;6295;49.452;8.466;2022-11-03T11:08:28;11.70;99.90
12460;DHT22;6295;49.452;8.466;2022-11-03T11:12:30;11.80;99.90
12460;DHT22;6295;49.452;8.466;2022-11-03T11:16:50;11.80;99.90
12460;DHT22;6295;49.452;8.466;2022-11-03T11:20:52;11.80;99.90
12460;DHT22;6295;49.452;8.466;2022-11-03T11:24:58;11.80;99.90
12460;DHT22;6295;49.452;8.466;2022-11-03T11:33:45;11.80;99.90
12460;DHT22;6295;49.452;8.466;2022-11-03T11:42:08;11.80;99.90
12460;DHT22;6295;49.452;8.466;2022-11-03T11:46:37;11.80;99.90
12460;DHT22;6295;49.452;8.466;2022-11-03T11:50:41;11.80;99.90
12460;DHT22;6295;49.452;8.466;2022-11-03T11:54:44;11.90;99.90
12460;DHT22;6295;49.452;8.466;2022-11-03T11:58:49;11.80;99.90
12460;DHT22;6295;49.452;8.466;2022-11-03T12:02:53;11.80;99.90
12460;DHT22;6295;49.452;8.466;2022-11-03T12:06:55;11.80;99.90
12460;DHT22;6295;49.452;8.466;2022-11-03T12:11:00;11.80;99.90
12460;DHT22;6295;49.452;8.466;2022-11-03T12:15:04;11.80;99.90
12460;DHT22;6295;49.452;8.466;2022-11-03T12:19:35;11.80;99.90
12460;DHT22;6295;49.452;8.466;2022-11-03T12:23:40;11.80;99.90
12460;DHT22;6295;49.452;8.466;2022-11-03T12:27:42;11.90;99.90
12460;DHT22;6295;49.452;8.466;2022-11-03T12:31:47;11.90;99.90
12460;DHT22;6295;49.452;8.466;2022-11-03T12:35:49;11.90;99.90
12460;DHT22;6295;49.452;8.466;2022-11-03T12:39:51;12.00;99.90
12460;DHT22;6295;49.452;8.466;2022-11-03T12:43:53;12.00;99.90
12460;DHT22;6295;49.452;8.466;2022-11-03T12:47:57;12.10;99.90
12460;DHT22;6295;49.452;8.466;2022-11-03T12:52:00;12.10;99.90
12460;DHT22;6295;49.452;8.466;2022-11-03T13:00:09;12.10;99.90
12460;DHT22;6295;49.452;8.466;2022-11-03T13:04:13;12.10;99.90
12460;DHT22;6295;49.452;8.466;2022-11-03T13:08:15;12.10;99.90
12460;DHT22;6295;49.452;8.466;2022-11-03T13:16:32;12.10;99.90
12460;DHT22;6295;49.452;8.466;2022-11-03T13:20:36;12.10;99.90
12460;DHT22;6295;49.452;8.466;2022-11-03T13:24:38;12.10;99.90
12460;DHT22;6295;49.452;8.466;2022-11-03T13:28:40;12.00;99.90
12460;DHT22;6295;49.452;8.466;2022-11-03T13:32:42;12.00;99.90
12460;DHT22;6295;49.452;8.466;2022-11-03T13:36:46;12.10;99.90
12460;DHT22;6295;49.452;8.466;2022-11-03T13:40:48;12.00;99.90
12460;DHT22;6295;49.452;8.466;2022-11-03T13:44:50;12.10;99.90
12460;DHT22;6295;49.452;8.466;2022-11-03T13:48:52;12.00;99.90
12460;DHT22;6295;49.452;8.466;2022-11-03T13:52:56;12.00;99.90
12460;DHT22;6295;49.452;8.466;2022-11-03T13:56:58;12.10;99.90
12460;DHT22;6295;49.452;8.466;2022-11-03T14:01:01;12.00;99.90
12460;DHT22;6295;49.452;8.466;2022-11-03T14:05:04;12.00;99.90
12460;DHT22;6295;49.452;8.466;2022-11-03T14:09:08;12.00;99.90
12460;DHT22;6295;49.452;8.466;2022-11-03T14:13:11;12.00;99.90
12460;DHT22;6295;49.452;8.466;2022-11-03T14:17:14;12.00;99.90
12460;DHT22;6295;49.452;8.466;2022-11-03T14:21:17;12.00;99.90
12460;DHT22;6295;49.452;8.466;2022-11-03T14:25:22;12.10;99.90
12460;DHT22;6295;49.452;8.466;2022-11-03T14:29:24;12.00;99.90
12460;DHT22;6295;49.452;8.466;2022-11-03T14:33:26;12.00;99.90
12460;DHT22;6295;49.452;8.466;2022-11-03T14:37:29;12.00;99.90
12460;DHT22;6295;49.452;8.466;2022-11-03T14:41:32;12.10;99.90
12460;DHT22;6295;49.452;8.466;2022-11-03T14:45:52;12.10;99.90
12460;DHT22;6295;49.452;8.466;2022-11-03T14:49:54;12.10;99.90
12460;DHT22;6295;49.452;8.466;2022-11-03T14:53:56;12.10;99.90
12460;DHT22;6295;49.452;8.466;2022-11-03T14:58:00;12.10;99.90
12460;DHT22;6295;49.452;8.466;2022-11-03T15:02:03;12.10;99.90
12460;DHT22;6295;49.452;8.466;2022-11-03T15:06:07;12.10;99.90
12460;DHT22;6295;49.452;8.466;2022-11-03T15:10:10;12.10;99.90
12460;DHT22;6295;49.452;8.466;2022-11-03T15:14:14;12.10;99.90
12460;DHT22;6295;49.452;8.466;2022-11-03T15:18:16;12.00;99.90
12460;DHT22;6295;49.452;8.466;2022-11-03T15:22:18;12.00;99.90
12460;DHT22;6295;49.452;8.466;2022-11-03T15:26:20;12.00;99.90
12460;DHT22;6295;49.452;8.466;2022-11-03T15:30:24;12.00;99.90
12460;DHT22;6295;49.452;8.466;2022-11-03T15:34:26;12.00;99.90
12460;DHT22;6295;49.452;8.466;2022-11-03T15:38:29;11.90;99.90
12460;DHT22;6295;49.452;8.466;2022-11-03T15:42:31;11.90;99.90
12460;DHT22;6295;49.452;8.466;2022-11-03T15:46:36;11.90;99.90
12460;DHT22;6295;49.452;8.466;2022-11-03T15:50:39;11.90;99.90
12460;DHT22;6295;49.452;8.466;2022-11-03T15:54:43;11.80;99.90
12460;DHT22;6295;49.452;8.466;2022-11-03T15:58:45;11.80;99.90
12460;DHT22;6295;49.452;8.466;2022-11-03T16:02:49;11.70;99.90
12460;DHT22;6295;49.452;8.466;2022-11-03T16:10:53;11.70;99.90
12460;DHT22;6295;49.452;8.466;2022-11-03T16:14:57;11.70;99.90
12460;DHT22;6295;49.452;8.466;2022-11-03T16:19:02;11.60;99.90
12460;DHT22;6295;49.452;8.466;2022-11-03T16:23:04;11.60;99.90
12460;DHT22;6295;49.452;8.466;2022-11-03T16:27:06;11.60;99.90
12460;DHT22;6295;49.452;8.466;2022-11-03T16:31:09;11.60;99.90
12460;DHT22;6295;49.452;8.466;2022-11-03T16:35:12;11.60;99.90
12460;DHT22;6295;49.452;8.466;2022-11-03T16:39:16;11.60;99.90
12460;DHT22;6295;49.452;8.466;2022-11-03T16:43:19;11.60;99.90
12460;DHT22;6295;49.452;8.466;2022-11-03T16:47:23;11.60;99.90
12460;DHT22;6295;49.452;8.466;2022-11-03T16:51:28;11.60;99.90
12460;DHT22;6295;49.452;8.466;2022-11-03T16:55:30;11.60;99.90
